createdAt,value
2024-05-09T00:00:36.067Z,95267.09
2024-05-09T00:03:06.992Z,95275.53
2024-05-09T00:05:34.750Z,95277.03
2024-05-09T00:08:02.337Z,95279.69
2024-05-09T00:10:36.017Z,95282.50
2024-05-09T00:13:05.985Z,95284.47
2024-05-09T00:15:34.044Z,95269.31
2024-05-09T00:18:02.152Z,95269.53
2024-05-09T00:20:37.433Z,95271.06
2024-05-09T00:23:08.136Z,95274.63
2024-05-09T00:25:35.772Z,95276.84
2024-05-09T00:28:03.192Z,95267.88
2024-05-09T00:30:35.124Z,95270.34
2024-05-09T00:33:05.138Z,95273.25
2024-05-09T00:35:33.703Z,95272.66
2024-05-09T00:38:01.423Z,95264.06
2024-05-09T00:40:37.591Z,95268.56
2024-05-09T00:43:07.654Z,95265.34
2024-05-09T00:45:35.151Z,95267.41
2024-05-09T00:48:02.810Z,95262.84
2024-05-09T00:50:36.119Z,95264.97
2024-05-09T00:53:05.215Z,95260.84
2024-05-09T00:55:32.708Z,95257.78
2024-05-09T00:58:00.095Z,95258.44
2024-05-09T01:00:35.561Z,95255.19
2024-05-09T01:03:07.349Z,95263.03
2024-05-09T01:05:35.601Z,95262.22
2024-05-09T01:08:03.392Z,95250.66
2024-05-09T01:10:34.815Z,95257.66
2024-05-09T01:13:03.273Z,95257.66
2024-05-09T01:15:30.725Z,95249.84
2024-05-09T01:17:58.412Z,95254.00
2024-05-09T01:20:36.963Z,95252.16
2024-05-09T01:23:09.956Z,95257.94
2024-05-09T01:25:37.803Z,95249.47
2024-05-09T01:28:05.264Z,95245.88
2024-05-09T01:30:35.726Z,95256.28
2024-05-09T01:33:05.705Z,95249.00
2024-05-09T01:35:34.473Z,95252.25
2024-05-09T01:38:02.008Z,95254.50
2024-05-09T01:40:37.076Z,95261.59
2024-05-09T01:43:07.193Z,95253.06
2024-05-09T01:45:34.786Z,95256.50
2024-05-09T01:48:03.023Z,95258.28
2024-05-09T01:53:01.269Z,95257.19
2024-05-09T01:55:28.702Z,95257.50
2024-05-09T01:57:56.068Z,95260.28
2024-05-09T02:00:33.741Z,95255.81
2024-05-09T02:03:06.586Z,95252.41
2024-05-09T02:05:34.155Z,95252.69
2024-05-09T02:08:01.650Z,95257.97
2024-05-09T02:10:32.646Z,95252.38
2024-05-09T02:13:00.857Z,95255.81
2024-05-09T02:15:28.352Z,95257.09
2024-05-09T02:17:56.054Z,95264.38
2024-05-09T02:20:30.662Z,95256.91
2024-05-09T02:23:03.371Z,95256.09
2024-05-09T02:25:30.803Z,95257.78
2024-05-09T02:27:58.185Z,95262.94
2024-05-09T02:30:35.650Z,95250.53
2024-05-09T02:33:08.081Z,95264.75
2024-05-09T02:35:36.212Z,95256.97
2024-05-09T02:38:03.746Z,95251.34
2024-05-09T02:40:37.408Z,95253.84
2024-05-09T02:43:06.879Z,95250.03
2024-05-09T02:45:34.499Z,95248.59
2024-05-09T02:48:02.430Z,95257.69
2024-05-09T02:50:37.289Z,95245.91
2024-05-09T02:53:07.086Z,95241.09
2024-05-09T02:55:34.629Z,95238.66
2024-05-09T02:58:02.060Z,95243.16
2024-05-09T03:00:37.231Z,95241.31
2024-05-09T03:03:09.068Z,95246.47
2024-05-09T03:05:37.834Z,95242.34
2024-05-09T03:08:05.369Z,95242.53
2024-05-09T03:10:36.429Z,95246.81
2024-05-09T03:13:05.774Z,95251.44
2024-05-09T03:15:33.358Z,95251.94
2024-05-09T03:18:01.478Z,95258.53
2024-05-09T03:20:34.084Z,95260.66
2024-05-09T03:23:03.491Z,95252.78
2024-05-09T03:25:31.230Z,95258.56
2024-05-09T03:27:58.642Z,95239.13
2024-05-09T03:30:35.623Z,95247.34
2024-05-09T03:33:08.479Z,95243.75
2024-05-09T03:35:36.022Z,95238.13
2024-05-09T03:38:03.437Z,95244.59
2024-05-09T03:40:31.419Z,95237.66
2024-05-09T03:42:59.014Z,95244.84
2024-05-09T03:45:26.439Z,95243.22
2024-05-09T03:47:54.006Z,95238.78
2024-05-09T03:50:29.548Z,95241.13
2024-05-09T03:53:01.193Z,95242.22
2024-05-09T03:55:28.677Z,95232.97
2024-05-09T03:57:56.047Z,95244.03
2024-05-09T04:00:31.143Z,95241.13
2024-05-09T04:03:06.050Z,95241.94
2024-05-09T04:05:35.214Z,95240.63
2024-05-09T04:08:02.866Z,95245.56
2024-05-09T04:10:33.706Z,95244.41
2024-05-09T04:13:02.803Z,95254.94
2024-05-09T04:15:30.475Z,95255.63
2024-05-09T04:17:58.222Z,95255.94
2024-05-09T04:20:36.006Z,95257.75
2024-05-09T04:23:07.281Z,95255.63
2024-05-09T04:25:35.460Z,95254.31
2024-05-09T04:28:02.857Z,95258.75
2024-05-09T04:30:36.943Z,95264.03
2024-05-09T04:33:08.972Z,95266.78
2024-05-09T04:35:38.724Z,95269.28
2024-05-09T04:38:06.629Z,95275.38
2024-05-09T04:40:36.584Z,95269.56
2024-05-09T04:43:05.122Z,95276.34
2024-05-09T04:45:32.653Z,95274.56
2024-05-09T04:48:00.627Z,95278.84
2024-05-09T04:50:36.012Z,95272.88
2024-05-09T04:53:06.708Z,95273.19
2024-05-09T04:55:34.563Z,95278.28
2024-05-09T04:58:01.981Z,95272.31
2024-05-09T05:00:35.865Z,95266.03
2024-05-09T05:03:05.354Z,95265.03
2024-05-09T05:05:33.007Z,95273.13
2024-05-09T05:08:00.451Z,95277.28
2024-05-09T05:10:33.890Z,95274.97
2024-05-09T05:13:03.803Z,95266.03
2024-05-09T05:15:31.184Z,95275.25
2024-05-09T05:17:58.766Z,95268.34
2024-05-09T05:20:32.846Z,95277.41
2024-05-09T05:23:01.475Z,95279.16
2024-05-09T05:25:28.926Z,95282.19
2024-05-09T05:27:56.308Z,95280.78
2024-05-09T05:30:29.037Z,95287.28
2024-05-09T05:33:00.834Z,95286.78
2024-05-09T05:35:28.584Z,95292.34
2024-05-09T05:37:56.093Z,95288.28
2024-05-09T05:40:32.226Z,95301.03
2024-05-09T05:43:03.332Z,95289.84
2024-05-09T05:45:30.706Z,95291.88
2024-05-09T05:47:58.250Z,95286.09
2024-05-09T05:50:32.494Z,95298.44
2024-05-09T05:53:03.691Z,95297.63
2024-05-09T05:55:31.137Z,95299.56
2024-05-09T05:57:58.584Z,95300.25
2024-05-09T06:00:34.001Z,95299.06
2024-05-09T06:03:05.266Z,95303.72
2024-05-09T06:05:33.121Z,95306.09
2024-05-09T06:08:00.991Z,95305.28
2024-05-09T06:10:35.241Z,95294.50
2024-05-09T06:13:06.466Z,95305.88
2024-05-09T06:15:33.979Z,95299.75
2024-05-09T06:18:01.855Z,95298.38
2024-05-09T06:20:35.428Z,95303.25
2024-05-09T06:23:05.243Z,95297.25
2024-05-09T06:25:32.777Z,95302.28
2024-05-09T06:28:00.292Z,95295.88
2024-05-09T06:30:36.768Z,95303.09
2024-05-09T06:33:07.824Z,95304.16
2024-05-09T06:35:36.088Z,95297.78
2024-05-09T06:38:03.700Z,95300.69
2024-05-09T06:40:37.314Z,95304.84
2024-05-09T06:43:06.849Z,95300.22
2024-05-09T06:45:34.217Z,95306.78
2024-05-09T06:48:01.741Z,95308.72
2024-05-09T06:50:36.822Z,95306.06
2024-05-09T06:53:05.664Z,95305.13
2024-05-09T06:55:33.108Z,95304.81
2024-05-09T06:58:00.514Z,95308.66
2024-05-09T07:00:35.654Z,95310.00
2024-05-09T07:03:06.890Z,95309.34
2024-05-09T07:05:34.470Z,95308.25
2024-05-09T07:08:01.934Z,95308.22
2024-05-09T07:10:34.712Z,95300.16
2024-05-09T07:13:03.415Z,95304.63
2024-05-09T07:15:30.856Z,95304.94
2024-05-09T07:17:58.328Z,95304.56
2024-05-09T07:20:33.798Z,95307.69
2024-05-09T07:23:02.548Z,95297.84
2024-05-09T07:25:30.603Z,95298.22
2024-05-09T07:27:58.087Z,95299.22
2024-05-09T07:30:32.837Z,95290.94
2024-05-09T07:33:02.777Z,95289.13
2024-05-09T07:35:31.222Z,95291.50
2024-05-09T07:37:58.977Z,95296.78
2024-05-09T07:40:33.244Z,95297.78
2024-05-09T07:43:03.875Z,95287.75
2024-05-09T07:45:48.004Z,95289.69
2024-05-09T07:53:38.399Z,95279.75
2024-05-09T07:56:06.782Z,95283.56
2024-05-09T07:58:34.342Z,95286.75
2024-05-09T08:01:01.822Z,95289.75
2024-05-09T08:03:29.393Z,95278.09
2024-05-09T08:05:56.852Z,95281.13
2024-05-09T08:08:24.327Z,95278.28
2024-05-09T08:10:51.766Z,95277.00
2024-05-09T08:13:19.264Z,95275.34
2024-05-09T08:15:46.784Z,95275.25
2024-05-09T08:18:14.413Z,95270.03
2024-05-09T08:20:41.899Z,95276.34
2024-05-09T08:23:09.272Z,95273.91
2024-05-09T08:25:36.677Z,95270.28
2024-05-09T08:28:04.116Z,95256.34
2024-05-09T08:30:36.751Z,95260.19
2024-05-09T08:33:06.497Z,95272.41
2024-05-09T08:35:34.852Z,95265.78
2024-05-09T08:38:02.580Z,95259.97
2024-05-09T08:40:34.859Z,95267.34
2024-05-09T08:43:04.415Z,95266.22
2024-05-09T08:45:31.927Z,95269.59
2024-05-09T08:47:59.380Z,95274.84
2024-05-09T08:50:35.380Z,95271.47
2024-05-09T08:53:05.877Z,95267.34
2024-05-09T08:55:33.305Z,95270.06
2024-05-09T08:58:00.689Z,95270.59
2024-05-09T09:00:35.801Z,95271.16
2024-05-09T09:03:04.850Z,95267.00
2024-05-09T09:05:32.467Z,95266.59
2024-05-09T09:07:59.933Z,95262.66
2024-05-09T09:10:32.019Z,95274.97
2024-05-09T09:13:00.668Z,95265.09
2024-05-09T09:15:28.213Z,95267.28
2024-05-09T09:17:55.741Z,95268.72
2024-05-09T09:20:29.223Z,95267.78
2024-05-09T09:23:02.927Z,95270.28
2024-05-09T09:25:30.301Z,95258.13
2024-05-09T09:27:58.130Z,95282.00
2024-05-09T09:30:34.791Z,95276.13
2024-05-09T09:33:05.471Z,95281.56
2024-05-09T09:35:33.132Z,95278.19
2024-05-09T09:38:00.535Z,95270.13
2024-05-09T09:40:32.154Z,95267.03
2024-05-09T09:43:01.408Z,95273.22
2024-05-09T09:45:28.904Z,95270.91
2024-05-09T09:47:56.467Z,95271.91
2024-05-09T09:50:31.583Z,95265.53
2024-05-09T09:53:01.879Z,95268.66
2024-05-09T09:55:29.268Z,95272.97
2024-05-09T09:57:56.662Z,95268.78
2024-05-09T10:00:29.984Z,95265.44
2024-05-09T10:03:01.576Z,95257.34
2024-05-09T10:05:29.560Z,95270.22
2024-05-09T10:07:57.141Z,95267.34
2024-05-09T10:10:31.436Z,95261.16
2024-05-09T10:13:00.882Z,95261.34
2024-05-09T10:15:28.504Z,95253.59
2024-05-09T10:17:56.033Z,95268.06
2024-05-09T10:20:28.155Z,95261.16
2024-05-09T10:22:59.641Z,95269.63
2024-05-09T10:25:27.050Z,95259.44
2024-05-09T10:27:54.528Z,95262.84
2024-05-09T10:30:29.583Z,95263.28
2024-05-09T10:33:03.174Z,95256.16
2024-05-09T10:35:30.635Z,95258.63
2024-05-09T10:37:57.994Z,95256.53
2024-05-09T10:40:31.029Z,95255.78
2024-05-09T10:43:01.919Z,95255.00
2024-05-09T10:45:30.920Z,95257.25
2024-05-09T10:47:58.423Z,95264.66
2024-05-09T10:50:29.116Z,95258.06
2024-05-09T10:53:01.222Z,95255.44
2024-05-09T10:55:28.673Z,95258.09
2024-05-09T10:57:56.130Z,95251.13
2024-05-09T11:00:30.353Z,95257.09
2024-05-09T11:03:02.765Z,95260.94
2024-05-09T11:05:30.254Z,95271.19
2024-05-09T11:07:57.695Z,95253.59
2024-05-09T11:10:31.755Z,95252.38
2024-05-09T11:13:01.543Z,95247.28
2024-05-09T11:15:29.131Z,95248.72
2024-05-09T11:17:56.693Z,95247.66
2024-05-09T11:20:29.520Z,95241.34
2024-05-09T11:22:57.555Z,95238.47
2024-05-09T11:25:24.976Z,95237.44
2024-05-09T11:27:52.434Z,95238.66
2024-05-09T11:32:50.197Z,95229.25
2024-05-09T11:35:17.824Z,95237.06
2024-05-09T11:37:45.344Z,95240.53
2024-05-09T11:40:21.022Z,95236.41
2024-05-09T11:42:53.379Z,95249.28
2024-05-09T11:45:21.003Z,95229.25
2024-05-09T11:47:48.500Z,95240.84
2024-05-09T11:50:22.690Z,95224.81
2024-05-09T11:52:56.890Z,95228.09
2024-05-09T11:55:27.687Z,95234.84
2024-05-09T11:57:56.054Z,95235.44
2024-05-09T12:00:32.891Z,95235.22
2024-05-09T12:03:04.016Z,95222.91
2024-05-09T12:05:31.657Z,95222.47
2024-05-09T12:07:59.090Z,95233.44
2024-05-09T12:10:32.822Z,95229.94
2024-05-09T12:13:04.234Z,95228.13
2024-05-09T12:15:33.218Z,95235.81
2024-05-09T12:18:03.362Z,95220.69
2024-05-09T12:20:36.965Z,95222.34
2024-05-09T12:23:06.810Z,95215.94
2024-05-09T12:25:34.328Z,95217.22
2024-05-09T12:28:01.851Z,95209.53
2024-05-09T12:30:36.558Z,95206.72
2024-05-09T12:33:07.079Z,95208.59
2024-05-09T12:35:34.600Z,95206.34
2024-05-09T12:38:02.036Z,95201.91
2024-05-09T12:40:36.263Z,95207.22
2024-05-09T12:43:05.800Z,95204.72
2024-05-09T12:45:33.480Z,95207.03
2024-05-09T12:48:01.128Z,95198.75
2024-05-09T12:50:33.049Z,95205.22
2024-05-09T12:53:02.765Z,95203.97
2024-05-09T12:55:37.279Z,95202.19
2024-05-09T12:58:12.273Z,95208.75
2024-05-09T13:00:39.837Z,95200.22
2024-05-09T13:03:07.402Z,95201.44
2024-05-09T13:05:35.086Z,95198.03
2024-05-09T13:08:02.548Z,95196.13
2024-05-09T13:10:32.731Z,95195.53
2024-05-09T13:13:01.624Z,95191.75
2024-05-09T13:15:29.587Z,95189.34
2024-05-09T13:17:59.530Z,95189.53
2024-05-09T13:20:33.329Z,95192.13
2024-05-09T13:23:02.816Z,95187.81
2024-05-09T13:25:30.188Z,95184.00
2024-05-09T13:27:57.665Z,95176.53
2024-05-09T13:30:34.379Z,95181.47
2024-05-09T13:33:07.347Z,95181.81
2024-05-09T13:35:35.919Z,95179.47
2024-05-09T13:38:04.510Z,95178.22
2024-05-09T13:40:35.110Z,95185.41
2024-05-09T13:43:04.052Z,95183.91
2024-05-09T13:45:31.815Z,95186.16
2024-05-09T13:47:59.564Z,95173.69
2024-05-09T13:50:34.054Z,95168.75
2024-05-09T13:53:03.674Z,95170.03
2024-05-09T13:55:31.059Z,95172.06
2024-05-09T13:57:58.540Z,95157.38
2024-05-09T14:00:38.165Z,95163.88
2024-05-09T14:03:12.429Z,95165.03
2024-05-09T14:05:39.999Z,95171.72
2024-05-09T14:08:07.492Z,95161.78
2024-05-09T14:10:34.912Z,95156.97
2024-05-09T14:13:02.405Z,95155.63
2024-05-09T14:15:30.058Z,95167.34
2024-05-09T14:17:57.538Z,95153.75
2024-05-09T14:20:31.049Z,95157.22
2024-05-09T14:23:00.387Z,95154.47
2024-05-09T14:25:28.401Z,95156.50
2024-05-09T14:27:56.071Z,95150.13
2024-05-09T14:30:30.981Z,95153.69
2024-05-09T14:33:04.339Z,95146.03
2024-05-09T14:35:31.969Z,95148.94
2024-05-09T14:37:59.352Z,95149.31
2024-05-09T14:40:37.052Z,95149.25
2024-05-09T14:43:09.169Z,95145.94
2024-05-09T14:45:36.611Z,95142.06
2024-05-09T14:48:04.343Z,95142.72
2024-05-09T14:50:36.900Z,95141.25
2024-05-09T14:53:07.053Z,95135.34
2024-05-09T14:55:34.997Z,95129.88
2024-05-09T14:58:02.759Z,95131.53
2024-05-09T15:00:35.621Z,95119.28
2024-05-09T15:03:04.244Z,95123.13
2024-05-09T15:05:31.711Z,95126.84
2024-05-09T15:07:59.115Z,95115.72
2024-05-09T15:10:34.036Z,95122.22
2024-05-09T15:13:03.725Z,95119.13
2024-05-09T15:15:31.514Z,95118.91
2024-05-09T15:17:59.181Z,95120.50
2024-05-09T15:20:34.384Z,95107.16
2024-05-09T15:23:04.086Z,95104.00
2024-05-09T15:25:31.601Z,95111.47
2024-05-09T15:27:59.094Z,95111.34
2024-05-09T15:32:56.864Z,95102.63
2024-05-09T15:35:24.419Z,95104.31
2024-05-09T15:37:51.801Z,95107.81
2024-05-09T15:40:26.808Z,95106.53
2024-05-09T15:43:03.092Z,95104.78
2024-05-09T15:45:30.550Z,95112.69
2024-05-09T15:47:58.131Z,95103.16
2024-05-09T15:50:35.350Z,95098.25
2024-05-09T15:53:07.606Z,95098.16
2024-05-09T15:55:35.942Z,95101.53
2024-05-09T15:58:04.259Z,95097.56
2024-05-09T16:00:38.026Z,95093.50
2024-05-09T16:03:09.400Z,95098.38
2024-05-09T16:05:37.605Z,95084.06
2024-05-09T16:08:05.308Z,95094.66
2024-05-09T16:10:34.320Z,95082.34
2024-05-09T16:13:03.519Z,95090.03
2024-05-09T16:15:31.823Z,95084.66
2024-05-09T16:17:59.553Z,95081.03
2024-05-09T16:20:35.078Z,95077.44
2024-05-09T16:23:07.394Z,95082.44
2024-05-09T16:25:35.030Z,95072.16
2024-05-09T16:28:02.990Z,95077.81
2024-05-09T16:30:34.967Z,95090.31
2024-05-09T16:33:04.233Z,95089.31
2024-05-09T16:35:32.355Z,95083.13
2024-05-09T16:37:59.714Z,95079.41
2024-05-09T16:40:36.110Z,95065.66
2024-05-09T16:43:07.438Z,95083.69
2024-05-09T16:45:35.355Z,95066.22
2024-05-09T16:48:02.937Z,95074.31
2024-05-09T16:50:33.385Z,95070.38
2024-05-09T16:53:02.683Z,95070.28
2024-05-09T16:55:30.222Z,95065.75
2024-05-09T16:57:57.862Z,95070.19
2024-05-09T17:00:35.607Z,95070.41
2024-05-09T17:03:08.603Z,95069.56
2024-05-09T17:05:36.701Z,95077.47
2024-05-09T17:08:04.463Z,95065.63
2024-05-09T17:10:34.174Z,95065.75
2024-05-09T17:13:03.354Z,95063.00
2024-05-09T17:15:31.627Z,95061.34
2024-05-09T17:17:59.164Z,95058.56
2024-05-09T17:20:32.905Z,95064.50
2024-05-09T17:23:03.243Z,95061.78
2024-05-09T17:25:30.716Z,95062.78
2024-05-09T17:27:58.159Z,95062.94
2024-05-09T17:30:32.284Z,95071.56
2024-05-09T17:33:03.573Z,95072.50
2024-05-09T17:35:31.182Z,95066.53
2024-05-09T17:37:58.569Z,95070.16
2024-05-09T17:40:32.511Z,95067.63
2024-05-09T17:43:03.352Z,95072.59
2024-05-09T17:45:31.118Z,95068.53
2024-05-09T17:47:58.792Z,95064.50
2024-05-09T17:50:31.818Z,95064.50
2024-05-09T17:53:03.175Z,95065.94
2024-05-09T17:55:30.713Z,95061.16
2024-05-09T17:57:58.228Z,95074.06
2024-05-09T18:00:36.343Z,95063.16
2024-05-09T18:03:07.677Z,95064.50
2024-05-09T18:05:36.169Z,95068.09
2024-05-09T18:08:04.221Z,95071.47
2024-05-09T18:10:36.711Z,95070.19
2024-05-09T18:13:07.188Z,95072.31
2024-05-09T18:15:34.999Z,95080.81
2024-05-09T18:18:03.091Z,95072.63
2024-05-09T18:20:40.482Z,95071.91
2024-05-09T18:23:11.845Z,95075.56
2024-05-09T18:25:39.270Z,95070.16
2024-05-09T18:28:06.800Z,95075.41
2024-05-09T18:30:36.309Z,95072.94
2024-05-09T18:33:05.957Z,95074.94
2024-05-09T18:35:34.792Z,95076.50
2024-05-09T18:38:02.190Z,95067.53
2024-05-09T18:40:34.432Z,95075.25
2024-05-09T18:43:05.364Z,95074.50
2024-05-09T18:45:34.213Z,95071.88
2024-05-09T18:48:01.782Z,95072.78
2024-05-09T18:50:35.586Z,95076.59
2024-05-09T18:53:06.297Z,95082.19
2024-05-09T18:55:33.904Z,95072.94
2024-05-09T18:58:01.475Z,95073.03
2024-05-09T19:00:34.778Z,95073.72
2024-05-09T19:03:06.454Z,95078.56
2024-05-09T19:05:34.571Z,95083.88
2024-05-09T19:08:02.319Z,95075.19
2024-05-09T19:10:34.271Z,95081.56
2024-05-09T19:13:06.880Z,95082.03
2024-05-09T19:15:38.474Z,95086.50
2024-05-09T19:18:06.577Z,95083.47
2024-05-09T19:20:35.894Z,95083.91
2024-05-09T19:23:04.501Z,95088.66
2024-05-09T19:25:32.184Z,95098.94
2024-05-09T19:27:59.739Z,95093.19
2024-05-09T19:30:36.560Z,95093.81
2024-05-09T19:33:08.718Z,95097.50
2024-05-09T19:35:36.634Z,95094.63
2024-05-09T19:38:04.162Z,95098.72
2024-05-09T19:40:33.627Z,95103.69
2024-05-09T19:43:03.169Z,95104.31
2024-05-09T19:45:31.286Z,95109.81
2024-05-09T19:47:58.928Z,95108.78
2024-05-09T19:50:32.871Z,95118.63
2024-05-09T19:53:08.219Z,95120.66
2024-05-09T19:55:35.691Z,95117.78
2024-05-09T19:58:05.237Z,95118.00
2024-05-09T20:00:36.251Z,95123.72
2024-05-09T20:03:05.729Z,95118.81
2024-05-09T20:05:33.684Z,95121.28
2024-05-09T20:08:01.456Z,95117.78
2024-05-09T20:10:32.694Z,95118.41
2024-05-09T20:13:02.654Z,95120.47
2024-05-09T20:15:30.265Z,95113.50
2024-05-09T20:17:57.814Z,95124.75
2024-05-09T20:20:33.683Z,95122.72
2024-05-09T20:23:05.863Z,95123.53
2024-05-09T20:25:33.311Z,95114.72
2024-05-09T20:28:00.858Z,95120.03
2024-05-09T20:30:32.410Z,95121.25
2024-05-09T20:33:01.996Z,95129.44
2024-05-09T20:35:29.663Z,95128.81
2024-05-09T20:37:57.031Z,95128.41
2024-05-09T20:40:29.288Z,95128.78
2024-05-09T20:43:00.959Z,95129.19
2024-05-09T20:45:28.371Z,95127.53
2024-05-09T20:47:56.115Z,95131.19
2024-05-09T20:50:32.632Z,95118.31
2024-05-09T20:53:05.692Z,95112.38
2024-05-09T20:55:33.069Z,95113.22
2024-05-09T20:58:00.548Z,95108.94
2024-05-09T21:00:35.414Z,95108.56
2024-05-09T21:03:07.777Z,95108.59
2024-05-09T21:05:35.845Z,95108.56
2024-05-09T21:08:03.539Z,95109.75
2024-05-09T21:10:33.334Z,95102.00
2024-05-09T21:13:02.564Z,95102.38
2024-05-09T21:15:30.765Z,95100.94
2024-05-09T21:17:58.381Z,95094.22
2024-05-09T21:20:31.240Z,95101.94
2024-05-09T21:23:00.034Z,95105.81
2024-05-09T21:25:27.531Z,95100.13
2024-05-09T21:27:55.124Z,95101.94
2024-05-09T21:30:32.073Z,95092.97
2024-05-09T21:33:07.974Z,95104.63
2024-05-09T21:35:35.655Z,95101.53
2024-05-09T21:38:03.049Z,95108.06
2024-05-09T21:40:34.514Z,95094.97
2024-05-09T21:43:03.733Z,95104.78
2024-05-09T21:45:31.428Z,95101.09
2024-05-09T21:47:59.132Z,95097.19
2024-05-09T21:50:35.446Z,95105.34
2024-05-09T21:53:07.288Z,95102.06
2024-05-09T21:55:34.997Z,95096.38
2024-05-09T21:58:03.050Z,95102.91
2024-05-09T22:00:36.574Z,95100.81
2024-05-09T22:03:06.168Z,95099.19
2024-05-09T22:05:34.042Z,95100.25
2024-05-09T22:08:01.662Z,95097.59
2024-05-09T22:10:33.885Z,95097.34
2024-05-09T22:13:04.041Z,95094.66
2024-05-09T22:15:31.768Z,95087.06
2024-05-09T22:17:59.178Z,95088.31
2024-05-09T22:20:34.428Z,95082.41
2024-05-09T22:23:05.390Z,95098.94
2024-05-09T22:25:33.197Z,95095.66
2024-05-09T22:28:01.214Z,95094.84
2024-05-09T22:30:35.909Z,95095.81
2024-05-09T22:33:06.733Z,95095.97
2024-05-09T22:35:34.310Z,95093.16
2024-05-09T22:38:01.714Z,95092.91
2024-05-09T22:40:38.600Z,95097.34
2024-05-09T22:43:14.057Z,95097.41
2024-05-09T22:45:41.613Z,95105.13
2024-05-09T22:48:09.408Z,95097.53
2024-05-09T22:50:37.006Z,95099.16
2024-05-09T22:53:04.398Z,95103.41
2024-05-09T22:55:31.785Z,95101.75
2024-05-09T22:57:59.226Z,95105.75
2024-05-09T23:00:31.565Z,95106.78
2024-05-09T23:03:00.438Z,95110.41
2024-05-09T23:05:28.232Z,95106.78
2024-05-09T23:07:55.800Z,95097.59
2024-05-09T23:10:31.098Z,95106.72
2024-05-09T23:13:03.217Z,95106.72
2024-05-09T23:15:30.866Z,95092.50
2024-05-09T23:17:58.778Z,95096.03
2024-05-09T23:20:33.934Z,95100.41
2024-05-09T23:23:05.555Z,95095.88
2024-05-09T23:25:32.924Z,95095.88
2024-05-09T23:28:00.412Z,95101.47
2024-05-09T23:30:36.504Z,95088.03
2024-05-09T23:33:07.216Z,95091.19
2024-05-09T23:35:34.820Z,95092.97
2024-05-09T23:38:02.206Z,95087.81
2024-05-09T23:40:38.156Z,95092.91
2024-05-09T23:43:08.021Z,95091.75
2024-05-09T23:45:35.770Z,95090.53
2024-05-09T23:48:03.724Z,95095.56
2024-05-09T23:50:35.843Z,95088.03
2024-05-09T23:53:05.946Z,95084.75
2024-05-09T23:55:33.921Z,95089.19
2024-05-09T23:58:01.401Z,95079.00
